createdAt,value
2022-10-06T00:00:49.602Z,14.20
2022-10-06T00:03:38.509Z,20.10
2022-10-06T00:06:11.862Z,16.50
2022-10-06T00:08:44.834Z,12.20
2022-10-06T00:11:18.027Z,10.60
2022-10-06T00:13:50.106Z,18.00
2022-10-06T00:16:24.617Z,12.00
2022-10-06T00:18:57.062Z,13.20
2022-10-06T00:21:29.920Z,11.90
2022-10-06T00:24:01.971Z,13.60
2022-10-06T00:26:35.117Z,10.20
2022-10-06T00:29:07.170Z,12.10
2022-10-06T00:31:39.309Z,14.50
2022-10-06T00:34:11.463Z,10.50
2022-10-06T00:36:44.092Z,11.40
2022-10-06T00:39:16.490Z,9.60
2022-10-06T00:41:48.590Z,10.00
2022-10-06T00:44:20.699Z,14.30
2022-10-06T00:46:54.155Z,14.90
2022-10-06T00:49:30.034Z,16.10
2022-10-06T00:52:04.317Z,13.50
2022-10-06T00:54:37.321Z,13.50
2022-10-06T00:57:09.734Z,11.90
2022-10-06T00:59:42.549Z,14.50
2022-10-06T01:02:17.114Z,10.70
2022-10-06T01:04:51.400Z,15.50
2022-10-06T01:07:24.445Z,11.30
2022-10-06T01:09:58.125Z,9.80
2022-10-06T01:12:32.501Z,11.00
2022-10-06T01:15:05.099Z,9.20
2022-10-06T01:20:12.367Z,12.60
2022-10-06T01:22:46.353Z,10.20
2022-10-06T01:25:19.730Z,10.50
2022-10-06T01:27:53.942Z,11.00
2022-10-06T01:30:30.161Z,10.80
2022-10-06T01:33:02.558Z,12.30
2022-10-06T01:35:34.703Z,11.80
2022-10-06T01:38:06.978Z,12.60
2022-10-06T01:40:39.310Z,11.70
2022-10-06T01:43:11.533Z,13.70
2022-10-06T01:45:43.666Z,10.70
2022-10-06T01:48:15.818Z,12.10
2022-10-06T01:50:48.054Z,11.10
2022-10-06T01:53:20.838Z,12.30
2022-10-06T01:55:52.924Z,12.30
2022-10-06T01:58:25.311Z,12.00
2022-10-06T02:00:57.650Z,10.00
2022-10-06T02:03:29.881Z,9.90
2022-10-06T02:06:02.262Z,13.30
2022-10-06T02:08:34.734Z,10.40
2022-10-06T02:11:10.435Z,12.00
2022-10-06T02:13:42.807Z,16.80
2022-10-06T02:16:16.042Z,12.30
2022-10-06T02:18:48.381Z,12.70
2022-10-06T02:21:22.778Z,9.30
2022-10-06T02:23:54.919Z,8.00
2022-10-06T02:26:27.494Z,14.30
2022-10-06T02:28:59.580Z,12.70
2022-10-06T02:31:31.821Z,11.40
2022-10-06T02:34:04.134Z,12.20
2022-10-06T02:36:36.219Z,10.70
2022-10-06T02:39:08.489Z,14.20
2022-10-06T02:41:40.813Z,11.80
2022-10-06T02:44:12.935Z,12.00
2022-10-06T02:46:47.163Z,11.60
2022-10-06T02:49:19.398Z,12.30
2022-10-06T02:51:51.770Z,16.20
2022-10-06T02:54:24.130Z,13.10
2022-10-06T02:56:56.761Z,9.50
2022-10-06T02:59:28.961Z,11.60
2022-10-06T03:02:01.229Z,10.20
2022-10-06T03:04:33.472Z,8.80
2022-10-06T03:07:05.619Z,12.20
2022-10-06T03:09:37.707Z,11.90
2022-10-06T03:12:09.867Z,13.30
2022-10-06T03:14:41.928Z,12.80
2022-10-06T03:17:14.340Z,13.90
2022-10-06T03:19:46.652Z,14.90
2022-10-06T03:22:18.805Z,17.20
2022-10-06T03:24:50.960Z,14.70
2022-10-06T03:27:23.092Z,14.80
2022-10-06T03:29:55.185Z,11.90
2022-10-06T03:32:27.451Z,13.90
2022-10-06T03:34:59.521Z,13.40
2022-10-06T03:37:32.799Z,12.40
2022-10-06T03:40:05.300Z,15.80
2022-10-06T03:42:37.464Z,13.50
2022-10-06T03:45:11.206Z,14.20
2022-10-06T03:47:43.324Z,13.00
2022-10-06T03:50:15.721Z,13.30
2022-10-06T03:52:51.491Z,14.50
2022-10-06T03:55:23.644Z,13.30
2022-10-06T03:57:57.541Z,11.60
2022-10-06T04:00:29.778Z,14.40
2022-10-06T04:03:02.073Z,11.70
2022-10-06T04:05:34.422Z,16.00
2022-10-06T04:08:06.529Z,16.90
2022-10-06T04:10:38.787Z,15.50
2022-10-06T04:13:10.951Z,11.30
2022-10-06T04:15:43.045Z,12.70
2022-10-06T04:18:16.089Z,13.90
2022-10-06T04:20:48.357Z,14.80
2022-10-06T04:23:21.687Z,16.20
2022-10-06T04:25:55.964Z,13.30
2022-10-06T04:28:28.666Z,15.50
2022-10-06T04:31:02.529Z,16.90
2022-10-06T04:33:34.832Z,18.60
2022-10-06T04:36:08.329Z,20.40
2022-10-06T04:38:40.412Z,16.40
2022-10-06T04:41:14.978Z,16.50
2022-10-06T04:43:48.069Z,14.90
2022-10-06T04:46:42.071Z,14.10
2022-10-06T04:49:19.580Z,19.20
2022-10-06T04:51:52.418Z,20.00
2022-10-06T04:54:24.614Z,15.20
2022-10-06T04:56:56.794Z,19.00
2022-10-06T04:59:42.681Z,16.50
2022-10-06T05:02:14.826Z,18.20
2022-10-06T05:04:46.975Z,17.10
2022-10-06T05:07:19.120Z,20.60
2022-10-06T05:09:51.241Z,19.70
2022-10-06T05:12:23.337Z,19.30
2022-10-06T05:14:55.893Z,19.90
2022-10-06T05:17:28.048Z,20.60
2022-10-06T05:20:00.115Z,18.30
2022-10-06T05:22:32.416Z,19.50
2022-10-06T05:25:04.561Z,21.00
2022-10-06T05:27:36.673Z,20.80
2022-10-06T05:30:10.455Z,16.50
2022-10-06T05:32:42.594Z,20.50
2022-10-06T05:35:14.668Z,20.60
2022-10-06T05:37:46.812Z,19.70
2022-10-06T05:40:19.144Z,21.20
2022-10-06T05:42:51.476Z,16.80
2022-10-06T05:45:23.583Z,21.90
2022-10-06T05:47:56.937Z,18.30
2022-10-06T05:50:29.156Z,13.90
2022-10-06T05:53:01.321Z,21.00
2022-10-06T05:55:33.368Z,18.00
2022-10-06T05:58:05.478Z,20.60
2022-10-06T06:00:37.767Z,19.20
2022-10-06T06:03:13.364Z,17.40
2022-10-06T06:05:46.018Z,22.60
2022-10-06T06:10:48.685Z,18.00
2022-10-06T06:13:24.209Z,17.80
2022-10-06T06:16:02.206Z,24.90
2022-10-06T06:18:35.457Z,20.10
2022-10-06T06:21:09.613Z,19.00
2022-10-06T06:23:46.711Z,22.70
2022-10-06T06:26:20.125Z,19.80
2022-10-06T06:28:53.295Z,21.30
2022-10-06T06:31:28.165Z,20.10
2022-10-06T06:34:02.404Z,18.90
2022-10-06T06:36:37.007Z,22.40
2022-10-06T06:39:10.895Z,15.70
2022-10-06T06:41:46.133Z,14.70
2022-10-06T06:44:18.306Z,15.20
2022-10-06T06:46:50.535Z,16.90
2022-10-06T06:49:22.722Z,14.10
2022-10-06T06:51:54.920Z,13.70
2022-10-06T06:54:27.866Z,14.80
2022-10-06T06:57:00.573Z,17.40
2022-10-06T06:59:34.263Z,13.10
2022-10-06T07:02:06.414Z,16.10
2022-10-06T07:04:38.529Z,14.90
2022-10-06T07:07:11.254Z,18.10
2022-10-06T07:09:43.525Z,18.00
2022-10-06T07:12:15.649Z,15.80
2022-10-06T07:15:05.477Z,16.40
2022-10-06T07:17:55.089Z,15.40
2022-10-06T07:20:44.946Z,13.20
2022-10-06T07:23:45.557Z,18.40
2022-10-06T07:26:17.793Z,14.90
2022-10-06T07:28:49.969Z,13.10
2022-10-06T07:31:22.172Z,14.60
2022-10-06T07:33:55.207Z,13.40
2022-10-06T07:36:27.472Z,10.20
2022-10-06T07:38:59.661Z,18.70
2022-10-06T07:41:32.794Z,13.70
2022-10-06T07:44:07.990Z,16.10
2022-10-06T07:46:40.696Z,12.40
2022-10-06T07:49:13.548Z,9.90
2022-10-06T07:54:16.269Z,15.00
2022-10-06T07:56:48.357Z,9.80
2022-10-06T07:59:20.516Z,12.20
2022-10-06T08:01:53.202Z,10.60
2022-10-06T08:04:25.508Z,11.90
2022-10-06T08:06:58.544Z,9.60
2022-10-06T08:09:30.895Z,16.80
2022-10-06T08:12:23.125Z,10.30
2022-10-06T08:14:55.641Z,7.10
2022-10-06T08:17:28.209Z,8.80
2022-10-06T08:20:00.382Z,7.60
2022-10-06T08:22:32.722Z,6.50
2022-10-06T08:25:07.033Z,11.20
2022-10-06T08:27:44.318Z,7.60
2022-10-06T08:30:16.895Z,5.80
2022-10-06T08:35:21.592Z,9.30
2022-10-06T08:37:54.513Z,4.70
2022-10-06T08:40:27.658Z,5.80
2022-10-06T08:43:02.510Z,4.70
2022-10-06T08:45:38.882Z,8.60
2022-10-06T08:48:15.227Z,8.30
2022-10-06T08:50:54.423Z,7.00
2022-10-06T08:53:35.858Z,7.60
2022-10-06T08:56:18.345Z,5.70
2022-10-06T08:58:54.980Z,11.40
2022-10-06T09:01:30.032Z,9.50
2022-10-06T09:04:05.257Z,10.20
2022-10-06T09:06:47.585Z,4.90
2022-10-06T09:09:29.304Z,4.70
2022-10-06T09:12:12.582Z,5.00
2022-10-06T09:14:48.186Z,4.10
2022-10-06T09:17:24.519Z,4.60
2022-10-06T09:20:00.443Z,5.70
2022-10-06T09:22:34.669Z,6.30
2022-10-06T09:25:20.235Z,5.80
2022-10-06T09:27:55.548Z,3.30
2022-10-06T09:30:28.868Z,3.90
2022-10-06T09:33:03.837Z,4.60
2022-10-06T09:35:36.630Z,4.00
2022-10-06T09:38:11.765Z,6.30
2022-10-06T09:40:51.243Z,6.60
2022-10-06T09:43:27.358Z,5.00
2022-10-06T09:46:22.924Z,3.60
2022-10-06T09:49:10.370Z,2.80
2022-10-06T09:51:42.657Z,3.30
2022-10-06T09:54:16.301Z,3.00
2022-10-06T09:56:51.365Z,7.10
2022-10-06T09:59:24.714Z,4.00
2022-10-06T10:01:57.832Z,3.10
2022-10-06T10:04:32.098Z,3.60
2022-10-06T10:07:25.540Z,5.60
2022-10-06T10:10:19.303Z,4.50
2022-10-06T10:12:55.772Z,5.70
2022-10-06T10:15:31.820Z,3.30
2022-10-06T10:18:05.567Z,5.00
2022-10-06T10:20:40.393Z,6.20
2022-10-06T10:23:30.075Z,5.90
2022-10-06T10:26:17.751Z,5.70
2022-10-06T10:29:19.989Z,4.70
2022-10-06T10:32:04.253Z,2.10
2022-10-06T10:35:00.442Z,4.70
2022-10-06T10:37:40.760Z,3.20
2022-10-06T10:40:21.295Z,3.40
2022-10-06T10:42:57.006Z,3.70
2022-10-06T10:45:34.154Z,4.10
2022-10-06T10:48:12.727Z,5.30
2022-10-06T10:50:52.018Z,4.40
2022-10-06T10:53:30.597Z,3.20
2022-10-06T10:56:04.249Z,3.40
2022-10-06T10:58:38.821Z,5.60
2022-10-06T11:01:20.424Z,2.80
2022-10-06T11:03:56.835Z,7.70
2022-10-06T11:06:51.620Z,4.20
2022-10-06T11:09:26.681Z,2.90
2022-10-06T11:12:06.481Z,3.10
2022-10-06T11:14:54.605Z,2.80
2022-10-06T11:17:44.510Z,2.80
2022-10-06T11:20:44.240Z,2.60
2022-10-06T11:23:30.706Z,6.10
2022-10-06T11:26:09.899Z,3.60
2022-10-06T11:28:46.517Z,3.20
2022-10-06T11:31:26.854Z,4.30
2022-10-06T11:34:01.849Z,2.70
2022-10-06T11:36:44.733Z,4.00
2022-10-06T11:39:25.337Z,3.20
2022-10-06T11:42:01.661Z,1.80
2022-10-06T11:44:38.769Z,3.80
2022-10-06T11:47:16.398Z,5.70
2022-10-06T11:49:56.047Z,5.50
2022-10-06T11:52:55.371Z,5.90
2022-10-06T11:55:29.143Z,3.10
2022-10-06T12:01:04.909Z,5.60
2022-10-06T12:04:16.918Z,4.10
2022-10-06T12:07:06.998Z,4.00
2022-10-06T12:09:52.350Z,3.60
2022-10-06T12:13:01.767Z,3.00
2022-10-06T12:19:03.881Z,2.80
2022-10-06T12:21:45.841Z,2.10
2022-10-06T12:24:39.298Z,2.90
2022-10-06T12:27:29.289Z,3.50
2022-10-06T12:30:17.005Z,3.80
2022-10-06T12:32:53.156Z,5.40
2022-10-06T12:35:32.125Z,2.80
2022-10-06T12:38:08.012Z,4.50
2022-10-06T12:40:57.746Z,2.80
2022-10-06T12:43:45.580Z,2.50
2022-10-06T12:46:36.204Z,5.40
2022-10-06T12:49:44.479Z,5.60
2022-10-06T12:52:49.588Z,2.80
2022-10-06T12:55:43.118Z,4.40
2022-10-06T12:58:21.685Z,4.40
2022-10-06T13:00:53.879Z,3.40
2022-10-06T13:03:28.420Z,3.40
2022-10-06T13:06:02.623Z,3.60
2022-10-06T13:08:36.427Z,2.90
2022-10-06T13:11:17.113Z,5.40
2022-10-06T13:13:53.925Z,4.00
2022-10-06T13:16:29.072Z,2.50
2022-10-06T13:19:02.294Z,4.70
2022-10-06T13:21:34.603Z,5.50
2022-10-06T13:24:07.060Z,4.00
2022-10-06T13:26:39.399Z,4.10
2022-10-06T13:29:21.434Z,4.80
2022-10-06T13:31:55.643Z,3.10
2022-10-06T13:34:32.018Z,5.90
2022-10-06T13:37:04.764Z,4.70
2022-10-06T13:39:37.130Z,7.70
2022-10-06T13:42:15.452Z,3.10
2022-10-06T13:44:52.058Z,3.20
2022-10-06T13:47:25.769Z,4.40
2022-10-06T13:50:02.254Z,4.00
2022-10-06T13:52:37.718Z,3.40
2022-10-06T13:55:18.225Z,2.80
2022-10-06T13:57:50.792Z,4.20
2022-10-06T14:00:25.749Z,3.10
2022-10-06T14:03:11.561Z,3.40
2022-10-06T14:05:45.009Z,4.60
2022-10-06T14:08:24.518Z,5.90
2022-10-06T14:10:58.064Z,4.10
2022-10-06T14:13:32.968Z,2.50
2022-10-06T14:16:06.983Z,2.70
2022-10-06T14:18:42.032Z,3.40
2022-10-06T14:21:28.858Z,4.20
2022-10-06T14:24:05.932Z,3.00
2022-10-06T14:26:41.814Z,5.80
2022-10-06T14:29:14.239Z,2.90
2022-10-06T14:31:47.208Z,4.00
2022-10-06T14:34:20.645Z,4.50
2022-10-06T14:36:55.390Z,5.30
2022-10-06T14:39:29.195Z,4.80
2022-10-06T14:42:01.417Z,4.20
2022-10-06T14:47:04.038Z,4.60
2022-10-06T14:49:37.049Z,5.80
2022-10-06T14:52:10.764Z,4.10
2022-10-06T14:54:43.406Z,4.10
2022-10-06T14:57:15.697Z,5.10
2022-10-06T14:59:47.844Z,2.90
2022-10-06T15:02:20.672Z,3.80
2022-10-06T15:04:53.029Z,5.80
2022-10-06T15:07:42.868Z,5.50
2022-10-06T15:10:14.978Z,4.30
2022-10-06T15:12:47.086Z,3.40
2022-10-06T15:15:19.491Z,5.20
2022-10-06T15:17:52.033Z,6.20
2022-10-06T15:20:24.168Z,3.70
2022-10-06T15:22:56.309Z,5.00
2022-10-06T15:25:46.169Z,4.90
2022-10-06T15:28:36.239Z,7.80
2022-10-06T15:31:08.604Z,5.00
2022-10-06T15:36:19.863Z,7.10
2022-10-06T15:38:52.496Z,4.10
2022-10-06T15:41:25.184Z,3.50
2022-10-06T15:43:58.406Z,9.30
2022-10-06T15:46:33.177Z,5.00
2022-10-06T15:49:07.057Z,5.30
2022-10-06T15:51:45.181Z,7.00
2022-10-06T15:54:20.045Z,7.90
2022-10-06T15:56:53.550Z,6.00
2022-10-06T15:59:26.049Z,5.50
2022-10-06T16:02:00.795Z,4.40
2022-10-06T16:04:46.564Z,6.00
2022-10-06T16:07:20.588Z,7.10
2022-10-06T16:09:53.532Z,12.70
2022-10-06T16:12:28.496Z,15.50
2022-10-06T16:15:00.822Z,10.50
2022-10-06T16:17:33.139Z,10.70
2022-10-06T16:22:37.926Z,7.40
2022-10-06T16:25:11.219Z,9.20
2022-10-06T16:27:43.587Z,9.30
2022-10-06T16:30:16.046Z,8.70
2022-10-06T16:32:48.250Z,9.00
2022-10-06T16:35:20.470Z,10.00
2022-10-06T16:37:52.803Z,12.20
2022-10-06T16:40:24.950Z,8.00
2022-10-06T16:42:57.266Z,10.10
2022-10-06T16:47:59.968Z,9.70
2022-10-06T16:50:32.254Z,12.10
2022-10-06T16:53:04.441Z,9.60
2022-10-06T16:55:36.517Z,12.80
2022-10-06T16:58:09.982Z,14.40
2022-10-06T17:00:42.348Z,11.50
2022-10-06T17:03:14.573Z,11.30
2022-10-06T17:05:46.702Z,17.50
2022-10-06T17:08:18.825Z,15.00
2022-10-06T17:11:01.988Z,11.60
2022-10-06T17:13:34.713Z,10.30
2022-10-06T17:16:09.398Z,12.70
2022-10-06T17:18:41.944Z,9.40
2022-10-06T17:21:39.712Z,7.90
2022-10-06T17:26:39.328Z,7.90
2022-10-06T17:29:16.162Z,11.60
2022-10-06T17:31:49.402Z,9.00
2022-10-06T17:34:24.422Z,16.90
2022-10-06T17:36:59.411Z,12.90
2022-10-06T17:40:15.294Z,18.80
2022-10-06T17:42:47.505Z,13.70
2022-10-06T17:45:21.382Z,17.70
2022-10-06T17:47:53.931Z,10.60
2022-10-06T17:50:26.033Z,16.10
2022-10-06T17:52:58.930Z,14.20
2022-10-06T17:55:31.209Z,10.50
2022-10-06T17:58:03.462Z,9.90
2022-10-06T18:00:35.570Z,14.90
2022-10-06T18:03:09.167Z,13.80
2022-10-06T18:05:41.403Z,14.90
2022-10-06T18:08:13.621Z,12.50
2022-10-06T18:11:09.225Z,12.90
2022-10-06T18:13:41.327Z,10.00
2022-10-06T18:16:19.196Z,15.10
2022-10-06T18:18:53.137Z,14.20
2022-10-06T18:21:27.333Z,12.50
2022-10-06T18:23:59.562Z,15.60
2022-10-06T18:26:31.676Z,15.20
2022-10-06T18:29:03.937Z,14.80
2022-10-06T18:31:36.915Z,13.20
2022-10-06T18:36:10.204Z,11.80
2022-10-06T18:37:04.597Z,14.60
2022-10-06T18:39:36.721Z,14.60
2022-10-06T18:42:11.319Z,15.40
2022-10-06T18:45:01.092Z,14.00
2022-10-06T18:47:50.933Z,14.50
2022-10-06T18:50:23.660Z,13.90
2022-10-06T18:52:56.638Z,16.70
2022-10-06T18:55:29.967Z,12.80
2022-10-06T18:58:02.270Z,17.40
2022-10-06T19:00:34.413Z,11.30
2022-10-06T19:03:07.329Z,15.00
2022-10-06T19:05:39.469Z,20.00
2022-10-06T19:08:12.110Z,18.90
2022-10-06T19:11:04.354Z,15.00
2022-10-06T19:13:37.627Z,13.70
2022-10-06T19:16:10.747Z,12.60
2022-10-06T19:18:42.990Z,13.10
2022-10-06T19:21:15.403Z,14.00
2022-10-06T19:23:47.564Z,14.30
2022-10-06T19:26:22.755Z,14.40
2022-10-06T19:28:55.014Z,15.90
2022-10-06T19:31:27.607Z,18.00
2022-10-06T19:34:00.971Z,18.50
2022-10-06T19:36:33.678Z,14.20
2022-10-06T19:39:07.528Z,15.70
2022-10-06T19:41:57.565Z,12.90
2022-10-06T19:44:30.152Z,15.20
2022-10-06T19:47:02.356Z,16.00
2022-10-06T19:49:34.839Z,16.50
2022-10-06T19:54:39.608Z,13.20
2022-10-06T19:57:12.474Z,16.00
2022-10-06T19:59:44.571Z,17.60
2022-10-06T20:02:16.710Z,14.90
2022-10-06T20:04:49.059Z,17.10
2022-10-06T20:07:25.595Z,16.20
2022-10-06T20:09:57.942Z,24.30
2022-10-06T20:12:30.173Z,26.60
2022-10-06T20:15:02.367Z,15.30
2022-10-06T20:17:34.842Z,16.10
2022-10-06T20:22:38.016Z,16.20
2022-10-06T20:25:11.172Z,18.00
2022-10-06T20:27:43.880Z,14.50
2022-10-06T20:30:16.571Z,20.10
2022-10-06T20:32:48.837Z,15.50
2022-10-06T20:35:21.109Z,17.10
2022-10-06T20:37:53.289Z,16.60
2022-10-06T20:40:42.950Z,15.20
2022-10-06T20:43:15.607Z,17.50
2022-10-06T20:45:49.023Z,18.80
2022-10-06T20:48:21.372Z,17.10
2022-10-06T20:50:53.518Z,15.60
2022-10-06T20:53:32.405Z,18.30
2022-10-06T20:56:05.914Z,17.00
2022-10-06T20:58:38.162Z,15.70
2022-10-06T21:01:11.545Z,18.80
2022-10-06T21:03:48.753Z,15.10
2022-10-06T21:06:21.101Z,18.60
2022-10-06T21:08:53.825Z,17.80
2022-10-06T21:11:27.112Z,14.80
2022-10-06T21:13:59.385Z,23.20
2022-10-06T21:16:33.197Z,19.30
2022-10-06T21:19:08.153Z,18.80
2022-10-06T21:21:40.464Z,22.70
2022-10-06T21:24:12.659Z,16.50
2022-10-06T21:26:45.587Z,24.10
2022-10-06T21:29:17.844Z,19.50
2022-10-06T21:31:50.153Z,16.70
2022-10-06T21:34:22.319Z,22.40
2022-10-06T21:36:54.459Z,23.80
2022-10-06T21:39:26.683Z,20.30
2022-10-06T21:41:58.895Z,20.40
2022-10-06T21:44:31.071Z,20.70
2022-10-06T21:47:03.657Z,19.70
2022-10-06T21:52:06.435Z,15.70
2022-10-06T21:54:38.679Z,18.70
2022-10-06T21:57:10.834Z,15.60
2022-10-06T21:59:43.029Z,19.20
2022-10-06T22:02:15.172Z,20.80
2022-10-06T22:04:47.255Z,18.50
2022-10-06T22:07:19.501Z,13.10
2022-10-06T22:09:51.724Z,16.00
2022-10-06T22:12:23.931Z,17.80
2022-10-06T22:14:58.915Z,17.80
2022-10-06T22:17:31.011Z,17.30
2022-10-06T22:20:03.330Z,18.00
2022-10-06T22:22:35.430Z,15.40
2022-10-06T22:25:08.459Z,17.20
2022-10-06T22:27:40.635Z,12.30
2022-10-06T22:30:14.103Z,13.00
2022-10-06T22:32:46.198Z,15.60
2022-10-06T22:35:18.439Z,14.00
2022-10-06T22:37:51.632Z,15.60
2022-10-06T22:40:23.901Z,15.10
2022-10-06T22:42:55.927Z,15.30
2022-10-06T22:45:28.093Z,12.60
2022-10-06T22:48:00.155Z,14.20
2022-10-06T22:50:32.356Z,16.30
2022-10-06T22:53:07.520Z,13.90
2022-10-06T22:55:39.659Z,13.40
2022-10-06T22:58:12.340Z,17.20
2022-10-06T23:00:45.272Z,13.10
2022-10-06T23:03:17.594Z,14.50
2022-10-06T23:05:58.417Z,13.60
2022-10-06T23:08:35.077Z,12.90
2022-10-06T23:11:09.239Z,12.00
2022-10-06T23:13:41.417Z,12.70
2022-10-06T23:16:15.120Z,12.40
2022-10-06T23:18:47.909Z,15.40
2022-10-06T23:21:22.798Z,15.10
2022-10-06T23:23:56.865Z,13.00
2022-10-06T23:26:29.106Z,12.60
2022-10-06T23:29:02.414Z,12.90
2022-10-06T23:31:34.571Z,12.10
2022-10-06T23:34:06.843Z,13.30
2022-10-06T23:36:39.091Z,13.20
2022-10-06T23:39:12.257Z,13.60
2022-10-06T23:41:44.486Z,13.90
2022-10-06T23:44:16.595Z,12.70
2022-10-06T23:46:48.834Z,11.40
2022-10-06T23:49:20.978Z,13.70
2022-10-06T23:51:53.337Z,10.20
2022-10-06T23:54:25.529Z,11.90
2022-10-06T23:56:57.684Z,14.40
2022-10-06T23:59:29.830Z,13.20
